createdAt,value
2022-08-07T00:04:48.755Z,92.32
2022-08-07T00:17:37.307Z,93.52
2022-08-07T00:20:44.217Z,93.79
2022-08-07T00:23:22.935Z,94.05
2022-08-07T00:32:28.442Z,94.56
2022-08-07T00:35:05.803Z,95.08
2022-08-07T00:48:08.814Z,96.46
2022-08-07T00:50:46.510Z,96.75
2022-08-07T00:53:55.251Z,96.88
2022-08-07T00:57:20.034Z,96.91
2022-08-07T00:59:59.628Z,97.18
2022-08-07T01:13:07.499Z,98.13
2022-08-07T01:16:05.344Z,98.33
2022-08-07T01:23:09.122Z,98.70
2022-08-07T01:25:56.359Z,99.11
2022-08-07T01:28:59.845Z,99.30
2022-08-07T01:31:59.538Z,99.73
2022-08-07T01:34:47.349Z,100.00
2022-08-07T01:37:26.378Z,100.00
2022-08-07T01:48:20.198Z,100.00
2022-08-07T01:50:43.365Z,100.00
2022-08-07T01:54:08.822Z,100.00
2022-08-07T01:57:24.585Z,100.00
2022-08-07T02:00:13.406Z,100.00
2022-08-07T02:03:21.883Z,100.00
2022-08-07T02:06:31.523Z,100.00
2022-08-07T02:09:58.506Z,100.00
2022-08-07T02:16:16.080Z,100.00
2022-08-07T02:18:54.223Z,100.00
2022-08-07T02:21:58.524Z,100.00
2022-08-07T02:25:01.970Z,100.00
2022-08-07T02:28:12.838Z,100.00
2022-08-07T02:30:51.053Z,100.00
2022-08-07T02:33:42.253Z,100.00
2022-08-07T02:36:49.870Z,100.00
2022-08-07T02:40:36.656Z,100.00
2022-08-07T02:43:16.339Z,100.00
2022-08-07T02:49:56.486Z,100.00
2022-08-07T02:53:03.512Z,100.00
2022-08-07T02:56:28.311Z,100.00
2022-08-07T02:59:37.552Z,100.00
2022-08-07T03:03:05.984Z,100.00
2022-08-07T03:06:16.523Z,100.00
2022-08-07T03:09:43.682Z,100.00
2022-08-07T03:13:07.591Z,100.00
2022-08-07T03:16:36.334Z,100.00
2022-08-07T03:19:17.268Z,100.00
2022-08-07T03:22:44.383Z,100.00
2022-08-07T03:25:40.180Z,100.00
2022-08-07T03:28:37.675Z,100.00
2022-08-07T03:31:43.064Z,100.00
2022-08-07T03:38:21.368Z,100.00
2022-08-07T03:41:41.997Z,100.00
2022-08-07T03:44:53.470Z,100.00
2022-08-07T03:47:56.509Z,100.00
2022-08-07T03:51:03.815Z,100.00
2022-08-07T04:01:03.388Z,100.00
2022-08-07T04:03:53.350Z,100.00
2022-08-07T04:07:23.077Z,100.00
2022-08-07T04:09:58.709Z,100.00
2022-08-07T04:12:39.267Z,100.00
2022-08-07T04:18:59.765Z,100.00
2022-08-07T04:22:13.303Z,100.00
2022-08-07T04:25:19.790Z,100.00
2022-08-07T04:31:20.207Z,100.00
2022-08-07T04:38:18.237Z,100.00
2022-08-07T04:41:25.039Z,100.00
2022-08-07T04:44:12.743Z,100.00
2022-08-07T04:47:57.414Z,100.00
2022-08-07T04:54:30.235Z,100.00
2022-08-07T04:58:09.809Z,100.00
2022-08-07T05:00:52.941Z,100.00
2022-08-07T05:10:58.364Z,100.00
2022-08-07T05:14:52.970Z,100.00
2022-08-07T05:17:50.061Z,100.00
2022-08-07T05:20:46.730Z,100.00
2022-08-07T05:23:54.283Z,100.00
2022-08-07T05:26:35.441Z,99.77
2022-08-07T05:29:51.198Z,100.00
2022-08-07T05:33:21.126Z,99.97
2022-08-07T05:35:55.883Z,99.54
2022-08-07T05:39:00.018Z,98.97
2022-08-07T05:45:19.846Z,97.85
2022-08-07T05:48:03.613Z,96.78
2022-08-07T05:50:43.205Z,96.78
2022-08-07T05:54:13.996Z,96.32
2022-08-07T05:56:54.029Z,95.86
2022-08-07T05:59:55.578Z,95.04
2022-08-07T06:03:14.546Z,94.43
2022-08-07T06:10:06.204Z,93.52
2022-08-07T06:13:16.072Z,94.38
2022-08-07T06:16:21.771Z,94.66
2022-08-07T06:20:03.744Z,93.82
2022-08-07T06:23:46.870Z,92.93
2022-08-07T06:26:10.232Z,92.38
2022-08-07T06:29:06.512Z,92.16
2022-08-07T06:32:16.593Z,91.74
2022-08-07T06:36:11.915Z,92.02
2022-08-07T06:40:16.942Z,90.66
2022-08-07T06:43:04.827Z,89.65
2022-08-07T06:46:00.962Z,89.97
2022-08-07T06:49:51.160Z,90.04
2022-08-07T06:53:00.078Z,88.65
2022-08-07T06:55:59.940Z,87.33
2022-08-07T07:00:13.124Z,87.31
2022-08-07T07:02:08.363Z,86.21
2022-08-07T07:04:55.159Z,85.33
2022-08-07T07:08:23.933Z,83.65
2022-08-07T07:12:07.547Z,83.69
2022-08-07T07:14:19.224Z,83.57
2022-08-07T07:20:22.832Z,82.36
2022-08-07T07:24:09.835Z,82.53
2022-08-07T07:26:35.369Z,82.16
2022-08-07T07:29:55.964Z,82.39
2022-08-07T07:32:46.776Z,82.23
2022-08-07T07:40:18.015Z,81.35
2022-08-07T07:42:56.664Z,80.79
2022-08-07T07:46:38.264Z,79.47
2022-08-07T07:50:31.285Z,80.38
2022-08-07T07:52:33.688Z,79.64
2022-08-07T07:55:37.728Z,79.92
2022-08-07T07:58:26.540Z,79.98
2022-08-07T08:02:01.737Z,79.31
2022-08-07T08:04:20.545Z,79.24
2022-08-07T08:07:02.726Z,79.69
2022-08-07T08:09:52.194Z,78.79
2022-08-07T08:12:52.055Z,78.19
2022-08-07T08:15:26.092Z,78.05
2022-08-07T08:18:17.273Z,77.84
2022-08-07T08:20:51.638Z,76.77
2022-08-07T08:23:46.141Z,76.99
2022-08-07T08:26:39.482Z,76.64
2022-08-07T08:29:17.927Z,76.73
2022-08-07T08:32:04.720Z,76.01
2022-08-07T08:34:46.146Z,74.77
2022-08-07T08:38:00.379Z,74.13
2022-08-07T08:40:23.646Z,73.35
2022-08-07T08:43:09.391Z,72.12
2022-08-07T08:45:59.502Z,70.62
2022-08-07T08:48:41.758Z,71.46
2022-08-07T08:51:49.890Z,71.67
2022-08-07T08:54:18.063Z,71.64
2022-08-07T08:56:52.838Z,70.97
2022-08-07T08:59:42.114Z,69.89
2022-08-07T09:02:36.554Z,69.69
2022-08-07T09:05:36.745Z,69.58
2022-08-07T09:08:28.106Z,69.42
2022-08-07T09:11:14.048Z,68.68
2022-08-07T09:14:06.413Z,69.26
2022-08-07T09:16:50.588Z,68.54
2022-08-07T09:19:52.129Z,68.40
2022-08-07T09:24:54.495Z,67.65
2022-08-07T09:25:54.221Z,67.40
2022-08-07T09:30:02.337Z,66.10
2022-08-07T09:31:33.714Z,65.29
2022-08-07T09:34:17.063Z,64.91
2022-08-07T09:36:56.936Z,64.28
2022-08-07T09:39:55.523Z,63.72
2022-08-07T09:42:39.790Z,62.35
2022-08-07T09:47:23.433Z,62.78
2022-08-07T09:48:25.164Z,62.47
2022-08-07T09:52:16.113Z,61.72
2022-08-07T09:54:21.719Z,61.85
2022-08-07T09:57:31.175Z,60.86
2022-08-07T10:00:14.876Z,60.49
2022-08-07T10:03:08.068Z,58.76
2022-08-07T10:06:11.895Z,60.11
2022-08-07T10:09:34.396Z,58.70
2022-08-07T10:12:26.438Z,57.84
2022-08-07T10:15:18.719Z,57.35
2022-08-07T10:18:03.075Z,56.20
2022-08-07T10:20:44.461Z,55.93
2022-08-07T10:24:05.156Z,53.91
2022-08-07T10:26:53.205Z,52.54
2022-08-07T10:29:45.933Z,52.69
2022-08-07T10:32:52.607Z,51.75
2022-08-07T10:35:56.106Z,49.76
2022-08-07T10:38:47.997Z,49.69
2022-08-07T10:41:46.896Z,50.04
2022-08-07T10:44:28.477Z,50.39
2022-08-07T10:47:26.839Z,49.13
2022-08-07T10:50:18.893Z,49.65
2022-08-07T10:53:08.191Z,49.64
2022-08-07T10:55:47.130Z,49.14
2022-08-07T10:58:40.386Z,48.81
2022-08-07T11:01:23.949Z,48.42
2022-08-07T11:04:11.166Z,48.77
2022-08-07T11:07:15.145Z,48.76
2022-08-07T11:10:07.948Z,49.41
2022-08-07T11:12:49.251Z,47.58
2022-08-07T11:15:37.601Z,48.56
2022-08-07T11:18:19.575Z,48.60
2022-08-07T11:21:00.851Z,48.75
2022-08-07T11:23:48.286Z,47.83
2022-08-07T11:26:26.052Z,46.86
2022-08-07T11:29:13.163Z,46.81
2022-08-07T11:32:08.712Z,46.97
2022-08-07T11:34:48.899Z,47.22
2022-08-07T11:37:38.482Z,47.46
2022-08-07T11:40:36.408Z,46.15
2022-08-07T11:43:19.214Z,46.64
2022-08-07T11:46:33.783Z,45.73
2022-08-07T11:50:25.360Z,45.60
2022-08-07T11:53:05.009Z,45.75
2022-08-07T11:56:28.705Z,45.62
2022-08-07T12:03:46.043Z,44.61
2022-08-07T12:07:10.140Z,44.66
2022-08-07T12:10:12.590Z,43.84
2022-08-07T12:13:01.291Z,44.23
2022-08-07T12:16:09.426Z,44.08
2022-08-07T12:18:53.526Z,43.24
2022-08-07T12:21:55.811Z,43.54
2022-08-07T12:26:02.953Z,43.85
2022-08-07T12:34:49.299Z,43.73
2022-08-07T12:38:11.467Z,43.52
2022-08-07T12:40:57.677Z,43.88
2022-08-07T12:47:46.127Z,43.58
2022-08-07T12:50:54.392Z,43.23
2022-08-07T12:54:03.241Z,43.06
2022-08-07T12:56:40.698Z,42.48
2022-08-07T12:59:54.366Z,42.33
2022-08-07T13:03:07.869Z,42.19
2022-08-07T13:06:04.505Z,42.42
2022-08-07T13:09:12.585Z,42.49
2022-08-07T13:16:06.441Z,42.35
2022-08-07T13:18:55.301Z,42.29
2022-08-07T13:25:30.035Z,41.38
2022-08-07T13:28:18.161Z,41.43
2022-08-07T13:31:23.688Z,41.27
2022-08-07T13:35:00.220Z,41.18
2022-08-07T13:38:24.458Z,40.93
2022-08-07T13:48:06.934Z,41.89
2022-08-07T13:54:25.024Z,40.21
2022-08-07T14:00:54.708Z,40.62
2022-08-07T14:04:07.570Z,40.68
2022-08-07T14:07:13.711Z,39.43
2022-08-07T14:10:01.533Z,39.45
2022-08-07T14:16:30.994Z,38.31
2022-08-07T14:20:38.241Z,37.23
2022-08-07T14:22:42.768Z,36.61
2022-08-07T14:25:29.407Z,35.68
2022-08-07T14:38:59.355Z,34.07
2022-08-07T14:42:19.506Z,34.55
2022-08-07T14:48:48.375Z,34.84
2022-08-07T14:58:34.371Z,35.36
2022-08-07T15:04:37.325Z,34.07
2022-08-07T15:10:58.588Z,32.82
2022-08-07T15:14:09.907Z,32.82
2022-08-07T15:17:21.419Z,32.24
2022-08-07T15:25:16.103Z,32.46
2022-08-07T15:26:28.692Z,32.85
2022-08-07T15:30:06.525Z,33.00
2022-08-07T15:36:04.770Z,32.72
2022-08-07T15:38:58.917Z,33.03
2022-08-07T15:42:45.754Z,33.23
2022-08-07T15:45:56.251Z,32.74
2022-08-07T15:48:36.557Z,32.93
2022-08-07T15:54:39.560Z,32.94
2022-08-07T15:57:52.631Z,33.08
2022-08-07T16:08:51.060Z,34.28
2022-08-07T16:15:56.398Z,34.68
2022-08-07T16:22:33.392Z,34.90
2022-08-07T16:25:57.396Z,34.53
2022-08-07T16:30:11.826Z,34.35
2022-08-07T16:32:54.587Z,34.35
2022-08-07T16:36:06.104Z,34.27
2022-08-07T16:39:02.185Z,33.84
2022-08-07T16:50:28.319Z,35.06
2022-08-07T16:54:06.359Z,35.34
2022-08-07T16:58:00.896Z,35.42
2022-08-07T17:00:55.502Z,35.63
2022-08-07T17:04:51.093Z,36.18
2022-08-07T17:08:02.335Z,36.51
2022-08-07T17:11:05.797Z,37.03
2022-08-07T17:14:19.005Z,37.16
2022-08-07T17:17:47.845Z,37.52
2022-08-07T17:24:27.182Z,38.56
2022-08-07T17:30:58.020Z,39.34
2022-08-07T17:34:15.341Z,39.67
2022-08-07T17:36:57.996Z,39.88
2022-08-07T17:40:50.702Z,40.17
2022-08-07T17:47:38.346Z,41.08
2022-08-07T17:51:03.557Z,41.27
2022-08-07T17:54:13.503Z,41.73
2022-08-07T18:15:12.432Z,43.63
2022-08-07T18:21:00.801Z,43.96
2022-08-07T18:24:54.767Z,44.36
2022-08-07T18:27:58.597Z,44.66
2022-08-07T18:34:40.807Z,45.15
2022-08-07T18:38:58.810Z,45.66
2022-08-07T18:41:16.754Z,45.90
2022-08-07T18:44:04.249Z,46.04
2022-08-07T18:47:00.210Z,46.33
2022-08-07T18:50:30.304Z,46.44
2022-08-07T18:53:13.932Z,46.28
2022-08-07T18:56:57.835Z,46.87
2022-08-07T19:00:34.045Z,47.22
2022-08-07T19:03:16.856Z,47.50
2022-08-07T19:06:04.769Z,47.66
2022-08-07T19:08:55.616Z,47.95
2022-08-07T19:15:01.946Z,48.58
2022-08-07T19:17:59.072Z,48.70
2022-08-07T19:21:10.125Z,49.11
2022-08-07T19:28:56.431Z,49.61
2022-08-07T19:31:00.297Z,49.95
2022-08-07T19:37:18.038Z,50.78
2022-08-07T19:40:17.281Z,51.28
2022-08-07T19:43:21.936Z,51.38
2022-08-07T19:46:21.217Z,51.59
2022-08-07T19:49:09.279Z,51.81
2022-08-07T19:51:50.803Z,51.89
2022-08-07T19:54:44.351Z,52.29
2022-08-07T20:00:34.484Z,52.66
2022-08-07T20:03:34.937Z,52.83
2022-08-07T20:10:37.289Z,53.10
2022-08-07T20:12:32.227Z,53.38
2022-08-07T20:15:41.411Z,53.73
2022-08-07T20:18:20.109Z,53.76
2022-08-07T20:20:53.411Z,53.74
2022-08-07T20:23:41.923Z,54.22
2022-08-07T20:26:32.425Z,54.24
2022-08-07T20:29:57.446Z,54.20
2022-08-07T20:33:03.075Z,54.60
2022-08-07T20:35:52.006Z,54.64
2022-08-07T20:38:32.173Z,54.77
2022-08-07T20:44:41.515Z,55.28
2022-08-07T20:47:25.146Z,55.42
2022-08-07T20:50:05.629Z,55.52
2022-08-07T20:52:51.266Z,55.78
2022-08-07T20:55:28.320Z,55.88
2022-08-07T20:58:39.168Z,55.91
2022-08-07T21:01:19.911Z,56.25
2022-08-07T21:08:19.983Z,56.53
2022-08-07T21:11:12.272Z,56.77
2022-08-07T21:18:17.284Z,56.69
2022-08-07T21:20:56.488Z,56.59
2022-08-07T21:24:21.090Z,56.57
2022-08-07T21:27:39.895Z,56.77
2022-08-07T21:30:30.142Z,57.06
2022-08-07T21:33:38.268Z,57.04
2022-08-07T21:36:34.540Z,57.19
2022-08-07T21:39:46.853Z,57.33
2022-08-07T21:42:46.061Z,57.42
2022-08-07T21:46:10.941Z,57.49
2022-08-07T21:48:57.446Z,57.37
2022-08-07T21:51:54.755Z,57.57
2022-08-07T21:55:01.167Z,58.15
2022-08-07T21:58:12.053Z,57.42
2022-08-07T22:04:53.595Z,57.14
2022-08-07T22:07:31.599Z,57.82
2022-08-07T22:10:37.002Z,57.21
2022-08-07T22:13:52.898Z,56.85
2022-08-07T22:16:44.044Z,56.56
2022-08-07T22:23:24.640Z,56.67
2022-08-07T22:26:12.651Z,56.61
2022-08-07T22:32:57.009Z,56.71
2022-08-07T22:35:55.292Z,56.73
2022-08-07T22:46:21.407Z,56.91
2022-08-07T22:49:51.654Z,57.14
2022-08-07T22:53:16.663Z,57.59
2022-08-07T23:07:46.617Z,57.84
2022-08-07T23:21:36.909Z,58.41
2022-08-07T23:24:30.926Z,58.60
2022-08-07T23:28:22.686Z,58.77
2022-08-07T23:31:06.383Z,58.86
2022-08-07T23:34:22.418Z,59.17
2022-08-07T23:37:22.534Z,59.43
2022-08-07T23:40:49.300Z,59.67
2022-08-07T23:47:25.081Z,60.20
2022-08-07T23:57:43.295Z,60.65
